KCDW/CDW METAR and TAF weather

Enter ICAO airport designator
Station Type Date Time Source
KCDW METAR 2019/08/21 02:53 UTC NOAA

KCDW 210253Z 00000KT 10SM CLR 26/21 A3004 RMK AO2 SLP175 T02610206 50004 $


Station Type Date Time Source
KCDW Decoded METAR 2019/08/21 02:53 UTC NOAA

Station name not available
Aug 20, 2019 - 10:53 PM EDT / 2019.08.21 0253 UTC
Wind: Calm:0
Visibility: 10 mile(s):0
Sky conditions: clear
Temperature: 79.0 F (26.1 C)
Dew Point: 69.1 F (20.6 C)
Relative Humidity: 71%
Pressure (altimeter): 30.04 in. Hg (1017 hPa)
Pressure tendency: 0.01 inches (0.4 hPa) higher than three hours ago
ob: KCDW 210253Z 00000KT 10SM CLR 26/21 A3004 RMK AO2 SLP175 T02610206 50004
cycle: 3

Station Type Date Time Source
KCDW TAF UTC NOAA

Error!

Example: see airport list